sensor_id;sensor_type;location;lat;lon;timestamp;P1;durP1;ratioP1;P2;durP2;ratioP2
8694;SDS011;65580;49.446;6.854;2024-01-30T00:03:09;34.17;;;16.63;;
8694;SDS011;65580;49.446;6.854;2024-01-30T00:07:12;28.10;;;13.77;;
8694;SDS011;65580;49.446;6.854;2024-01-30T00:11:15;31.85;;;15.05;;
8694;SDS011;65580;49.446;6.854;2024-01-30T00:15:18;33.33;;;15.50;;
8694;SDS011;65580;49.446;6.854;2024-01-30T00:19:22;31.85;;;15.85;;
8694;SDS011;65580;49.446;6.854;2024-01-30T00:23:25;27.95;;;14.05;;
8694;SDS011;65580;49.446;6.854;2024-01-30T00:27:27;30.73;;;14.85;;
8694;SDS011;65580;49.446;6.854;2024-01-30T00:31:30;34.70;;;16.65;;
8694;SDS011;65580;49.446;6.854;2024-01-30T00:35:35;30.88;;;13.68;;
8694;SDS011;65580;49.446;6.854;2024-01-30T00:43:40;27.63;;;13.93;;
8694;SDS011;65580;49.446;6.854;2024-01-30T00:47:43;31.77;;;14.75;;
8694;SDS011;65580;49.446;6.854;2024-01-30T00:51:47;25.80;;;12.90;;
8694;SDS011;65580;49.446;6.854;2024-01-30T00:55:50;31.90;;;14.55;;
8694;SDS011;65580;49.446;6.854;2024-01-30T00:59:53;31.80;;;14.23;;
8694;SDS011;65580;49.446;6.854;2024-01-30T01:03:56;27.80;;;13.73;;
8694;SDS011;65580;49.446;6.854;2024-01-30T01:08:01;27.17;;;14.43;;
8694;SDS011;65580;49.446;6.854;2024-01-30T01:12:04;32.55;;;13.93;;
8694;SDS011;65580;49.446;6.854;2024-01-30T01:16:07;31.98;;;15.18;;
8694;SDS011;65580;49.446;6.854;2024-01-30T01:20:09;29.05;;;14.45;;
8694;SDS011;65580;49.446;6.854;2024-01-30T01:24:14;28.92;;;14.10;;
8694;SDS011;65580;49.446;6.854;2024-01-30T01:28:17;29.00;;;14.20;;
8694;SDS011;65580;49.446;6.854;2024-01-30T01:32:20;26.85;;;13.48;;
8694;SDS011;65580;49.446;6.854;2024-01-30T01:36:22;24.98;;;13.18;;
8694;SDS011;65580;49.446;6.854;2024-01-30T01:40:27;25.88;;;13.48;;
8694;SDS011;65580;49.446;6.854;2024-01-30T01:48:32;27.50;;;13.25;;
8694;SDS011;65580;49.446;6.854;2024-01-30T01:52:35;30.77;;;12.52;;
8694;SDS011;65580;49.446;6.854;2024-01-30T01:56:40;25.70;;;12.65;;
8694;SDS011;65580;49.446;6.854;2024-01-30T02:00:43;31.20;;;14.43;;
8694;SDS011;65580;49.446;6.854;2024-01-30T02:04:46;23.20;;;11.68;;
8694;SDS011;65580;49.446;6.854;2024-01-30T02:08:48;27.75;;;13.63;;
8694;SDS011;65580;49.446;6.854;2024-01-30T02:12:52;31.30;;;13.60;;
8694;SDS011;65580;49.446;6.854;2024-01-30T02:16:55;25.50;;;13.15;;
8694;SDS011;65580;49.446;6.854;2024-01-30T02:20:58;27.85;;;13.45;;
8694;SDS011;65580;49.446;6.854;2024-01-30T02:25:05;27.60;;;13.30;;
8694;SDS011;65580;49.446;6.854;2024-01-30T02:29:08;25.48;;;13.23;;
8694;SDS011;65580;49.446;6.854;2024-01-30T02:33:11;29.55;;;13.10;;
8694;SDS011;65580;49.446;6.854;2024-01-30T02:37:14;31.75;;;14.30;;
8694;SDS011;65580;49.446;6.854;2024-01-30T02:41:18;28.77;;;13.23;;
8694;SDS011;65580;49.446;6.854;2024-01-30T02:45:21;24.83;;;13.23;;
8694;SDS011;65580;49.446;6.854;2024-01-30T02:49:23;27.58;;;13.25;;
8694;SDS011;65580;49.446;6.854;2024-01-30T02:53:26;24.73;;;13.15;;
8694;SDS011;65580;49.446;6.854;2024-01-30T02:57:30;26.27;;;13.20;;
8694;SDS011;65580;49.446;6.854;2024-01-30T03:01:33;28.15;;;12.48;;
8694;SDS011;65580;49.446;6.854;2024-01-30T03:05:45;23.70;;;11.48;;
8694;SDS011;65580;49.446;6.854;2024-01-30T03:09:47;27.85;;;13.95;;
8694;SDS011;65580;49.446;6.854;2024-01-30T03:13:52;26.63;;;12.23;;
8694;SDS011;65580;49.446;6.854;2024-01-30T03:17:54;22.23;;;11.95;;
8694;SDS011;65580;49.446;6.854;2024-01-30T03:21:57;32.47;;;15.95;;
8694;SDS011;65580;49.446;6.854;2024-01-30T03:26:00;28.05;;;13.27;;
8694;SDS011;65580;49.446;6.854;2024-01-30T03:30:05;26.38;;;13.63;;
8694;SDS011;65580;49.446;6.854;2024-01-30T03:34:09;24.92;;;12.48;;
8694;SDS011;65580;49.446;6.854;2024-01-30T03:38:12;23.98;;;12.77;;
8694;SDS011;65580;49.446;6.854;2024-01-30T03:42:14;23.83;;;11.73;;
8694;SDS011;65580;49.446;6.854;2024-01-30T03:46:18;22.70;;;11.93;;
8694;SDS011;65580;49.446;6.854;2024-01-30T03:50:21;22.50;;;11.60;;
8694;SDS011;65580;49.446;6.854;2024-01-30T03:54:24;28.02;;;11.27;;
8694;SDS011;65580;49.446;6.854;2024-01-30T03:58:27;22.65;;;11.93;;
8694;SDS011;65580;49.446;6.854;2024-01-30T04:02:31;36.17;;;15.38;;
8694;SDS011;65580;49.446;6.854;2024-01-30T04:06:34;23.05;;;12.18;;
8694;SDS011;65580;49.446;6.854;2024-01-30T04:10:36;24.58;;;11.52;;
8694;SDS011;65580;49.446;6.854;2024-01-30T04:14:39;23.25;;;11.38;;
8694;SDS011;65580;49.446;6.854;2024-01-30T04:18:43;31.48;;;14.68;;
8694;SDS011;65580;49.446;6.854;2024-01-30T04:22:46;21.00;;;11.25;;
8694;SDS011;65580;49.446;6.854;2024-01-30T04:26:49;29.15;;;13.52;;
8694;SDS011;65580;49.446;6.854;2024-01-30T04:30:52;24.27;;;12.05;;
8694;SDS011;65580;49.446;6.854;2024-01-30T04:34:56;30.92;;;13.82;;
8694;SDS011;65580;49.446;6.854;2024-01-30T04:38:59;21.65;;;10.68;;
8694;SDS011;65580;49.446;6.854;2024-01-30T04:43:02;23.08;;;11.75;;
8694;SDS011;65580;49.446;6.854;2024-01-30T04:47:05;24.02;;;11.40;;
8694;SDS011;65580;49.446;6.854;2024-01-30T04:51:11;27.63;;;12.68;;
8694;SDS011;65580;49.446;6.854;2024-01-30T04:55:14;22.52;;;10.80;;
8694;SDS011;65580;49.446;6.854;2024-01-30T04:59:20;36.53;;;14.50;;
8694;SDS011;65580;49.446;6.854;2024-01-30T05:03:22;25.10;;;11.75;;
8694;SDS011;65580;49.446;6.854;2024-01-30T05:07:27;22.42;;;11.20;;
8694;SDS011;65580;49.446;6.854;2024-01-30T05:11:29;23.30;;;11.63;;
8694;SDS011;65580;49.446;6.854;2024-01-30T05:15:32;23.58;;;10.93;;
8694;SDS011;65580;49.446;6.854;2024-01-30T05:19:35;24.15;;;10.88;;
8694;SDS011;65580;49.446;6.854;2024-01-30T05:23:39;25.13;;;12.43;;
8694;SDS011;65580;49.446;6.854;2024-01-30T05:27:43;26.00;;;12.95;;
8694;SDS011;65580;49.446;6.854;2024-01-30T05:31:45;23.55;;;11.48;;
8694;SDS011;65580;49.446;6.854;2024-01-30T05:35:48;25.80;;;11.52;;
8694;SDS011;65580;49.446;6.854;2024-01-30T05:39:52;28.50;;;12.48;;
8694;SDS011;65580;49.446;6.854;2024-01-30T05:43:55;25.75;;;11.57;;
8694;SDS011;65580;49.446;6.854;2024-01-30T05:47:58;28.88;;;12.82;;
8694;SDS011;65580;49.446;6.854;2024-01-30T05:52:01;30.83;;;13.00;;
8694;SDS011;65580;49.446;6.854;2024-01-30T05:56:06;30.20;;;12.35;;
8694;SDS011;65580;49.446;6.854;2024-01-30T06:00:10;30.40;;;13.57;;
8694;SDS011;65580;49.446;6.854;2024-01-30T06:04:13;30.80;;;13.18;;
8694;SDS011;65580;49.446;6.854;2024-01-30T06:08:16;29.35;;;13.48;;
8694;SDS011;65580;49.446;6.854;2024-01-30T06:12:21;31.75;;;12.52;;
8694;SDS011;65580;49.446;6.854;2024-01-30T06:16:24;35.83;;;14.48;;
8694;SDS011;65580;49.446;6.854;2024-01-30T06:20:30;41.08;;;17.90;;
8694;SDS011;65580;49.446;6.854;2024-01-30T06:24:33;38.38;;;16.25;;
8694;SDS011;65580;49.446;6.854;2024-01-30T06:28:37;29.80;;;13.00;;
8694;SDS011;65580;49.446;6.854;2024-01-30T06:32:40;28.70;;;12.25;;
8694;SDS011;65580;49.446;6.854;2024-01-30T06:36:43;33.35;;;12.07;;
8694;SDS011;65580;49.446;6.854;2024-01-30T06:40:46;33.90;;;13.50;;
8694;SDS011;65580;49.446;6.854;2024-01-30T06:44:50;32.75;;;13.38;;
8694;SDS011;65580;49.446;6.854;2024-01-30T06:48:52;48.35;;;17.35;;
8694;SDS011;65580;49.446;6.854;2024-01-30T06:52:55;26.73;;;12.75;;
8694;SDS011;65580;49.446;6.854;2024-01-30T06:56:58;31.13;;;14.55;;
8694;SDS011;65580;49.446;6.854;2024-01-30T07:01:02;38.15;;;16.08;;
8694;SDS011;65580;49.446;6.854;2024-01-30T07:05:05;31.52;;;14.27;;
8694;SDS011;65580;49.446;6.854;2024-01-30T07:09:09;36.97;;;14.85;;
8694;SDS011;65580;49.446;6.854;2024-01-30T07:13:11;40.00;;;14.90;;
8694;SDS011;65580;49.446;6.854;2024-01-30T07:17:16;30.65;;;13.48;;
8694;SDS011;65580;49.446;6.854;2024-01-30T07:21:18;30.33;;;14.20;;
8694;SDS011;65580;49.446;6.854;2024-01-30T07:25:23;31.10;;;13.60;;
8694;SDS011;65580;49.446;6.854;2024-01-30T07:29:28;34.35;;;14.52;;
8694;SDS011;65580;49.446;6.854;2024-01-30T07:33:32;32.50;;;14.55;;
8694;SDS011;65580;49.446;6.854;2024-01-30T07:37:35;45.42;;;19.92;;
8694;SDS011;65580;49.446;6.854;2024-01-30T07:41:38;50.60;;;20.50;;
8694;SDS011;65580;49.446;6.854;2024-01-30T07:45:41;37.50;;;16.90;;
8694;SDS011;65580;49.446;6.854;2024-01-30T07:49:45;34.40;;;16.60;;
8694;SDS011;65580;49.446;6.854;2024-01-30T07:53:49;39.85;;;16.25;;
8694;SDS011;65580;49.446;6.854;2024-01-30T07:57:52;32.05;;;15.95;;
8694;SDS011;65580;49.446;6.854;2024-01-30T08:01:55;37.58;;;17.30;;
8694;SDS011;65580;49.446;6.854;2024-01-30T08:05:59;37.35;;;15.57;;
8694;SDS011;65580;49.446;6.854;2024-01-30T08:10:02;35.63;;;16.63;;
8694;SDS011;65580;49.446;6.854;2024-01-30T08:14:05;32.30;;;16.70;;
8694;SDS011;65580;49.446;6.854;2024-01-30T08:18:08;73.30;;;27.10;;
8694;SDS011;65580;49.446;6.854;2024-01-30T08:22:13;48.83;;;21.17;;
8694;SDS011;65580;49.446;6.854;2024-01-30T08:26:15;43.85;;;20.75;;
8694;SDS011;65580;49.446;6.854;2024-01-30T08:30:18;38.90;;;17.52;;
8694;SDS011;65580;49.446;6.854;2024-01-30T08:34:22;35.72;;;16.90;;
8694;SDS011;65580;49.446;6.854;2024-01-30T08:38:27;65.65;;;26.60;;
8694;SDS011;65580;49.446;6.854;2024-01-30T08:46:33;64.32;;;25.92;;
8694;SDS011;65580;49.446;6.854;2024-01-30T08:50:36;77.05;;;28.95;;
8694;SDS011;65580;49.446;6.854;2024-01-30T08:54:40;45.60;;;20.80;;
8694;SDS011;65580;49.446;6.854;2024-01-30T08:58:43;49.67;;;22.88;;
8694;SDS011;65580;49.446;6.854;2024-01-30T09:02:46;65.30;;;27.40;;
8694;SDS011;65580;49.446;6.854;2024-01-30T09:06:48;62.50;;;26.90;;
8694;SDS011;65580;49.446;6.854;2024-01-30T09:10:53;70.93;;;30.55;;
8694;SDS011;65580;49.446;6.854;2024-01-30T09:14:56;63.10;;;27.50;;
8694;SDS011;65580;49.446;6.854;2024-01-30T09:18:59;65.05;;;26.10;;
8694;SDS011;65580;49.446;6.854;2024-01-30T09:23:02;60.08;;;25.98;;
8694;SDS011;65580;49.446;6.854;2024-01-30T09:27:06;54.17;;;23.42;;
8694;SDS011;65580;49.446;6.854;2024-01-30T09:31:09;72.07;;;29.80;;
8694;SDS011;65580;49.446;6.854;2024-01-30T09:35:12;63.13;;;25.50;;
8694;SDS011;65580;49.446;6.854;2024-01-30T09:39:16;62.78;;;27.60;;
8694;SDS011;65580;49.446;6.854;2024-01-30T09:43:23;62.95;;;27.05;;
8694;SDS011;65580;49.446;6.854;2024-01-30T09:47:28;75.60;;;30.95;;
8694;SDS011;65580;49.446;6.854;2024-01-30T09:51:30;63.50;;;26.67;;
8694;SDS011;65580;49.446;6.854;2024-01-30T09:55:34;69.03;;;29.52;;
8694;SDS011;65580;49.446;6.854;2024-01-30T09:59:39;76.82;;;31.15;;
8694;SDS011;65580;49.446;6.854;2024-01-30T10:03:43;64.80;;;28.52;;
8694;SDS011;65580;49.446;6.854;2024-01-30T10:07:50;69.55;;;28.40;;
8694;SDS011;65580;49.446;6.854;2024-01-30T10:11:55;58.00;;;25.52;;
8694;SDS011;65580;49.446;6.854;2024-01-30T10:16:00;61.95;;;26.33;;
8694;SDS011;65580;49.446;6.854;2024-01-30T10:20:04;50.03;;;23.08;;
8694;SDS011;65580;49.446;6.854;2024-01-30T10:24:08;50.38;;;23.10;;
8694;SDS011;65580;49.446;6.854;2024-01-30T10:28:14;47.58;;;23.38;;
8694;SDS011;65580;49.446;6.854;2024-01-30T10:32:19;50.50;;;24.08;;
8694;SDS011;65580;49.446;6.854;2024-01-30T10:36:23;41.95;;;21.70;;
8694;SDS011;65580;49.446;6.854;2024-01-30T10:40:30;36.38;;;19.08;;
8694;SDS011;65580;49.446;6.854;2024-01-30T10:44:36;33.38;;;16.92;;
8694;SDS011;65580;49.446;6.854;2024-01-30T10:48:42;34.50;;;17.05;;
8694;SDS011;65580;49.446;6.854;2024-01-30T10:52:46;29.50;;;14.93;;
8694;SDS011;65580;49.446;6.854;2024-01-30T10:56:50;29.40;;;13.48;;
8694;SDS011;65580;49.446;6.854;2024-01-30T11:00:53;33.33;;;14.90;;
8694;SDS011;65580;49.446;6.854;2024-01-30T11:05:06;33.15;;;14.38;;
8694;SDS011;65580;49.446;6.854;2024-01-30T11:09:17;27.20;;;14.98;;
8694;SDS011;65580;49.446;6.854;2024-01-30T11:17:41;24.50;;;12.85;;
8694;SDS011;65580;49.446;6.854;2024-01-30T11:21:47;21.77;;;11.35;;
8694;SDS011;65580;49.446;6.854;2024-01-30T11:30:20;23.42;;;11.40;;
8694;SDS011;65580;49.446;6.854;2024-01-30T11:34:32;24.75;;;12.45;;
8694;SDS011;65580;49.446;6.854;2024-01-30T11:42:43;24.70;;;11.00;;
8694;SDS011;65580;49.446;6.854;2024-01-30T11:54:58;16.35;;;8.77;;
8694;SDS011;65580;49.446;6.854;2024-01-30T11:59:09;17.40;;;9.43;;
8694;SDS011;65580;49.446;6.854;2024-01-30T12:03:12;18.80;;;9.07;;
8694;SDS011;65580;49.446;6.854;2024-01-30T12:07:15;17.65;;;9.15;;
8694;SDS011;65580;49.446;6.854;2024-01-30T12:11:19;18.15;;;9.85;;
8694;SDS011;65580;49.446;6.854;2024-01-30T12:15:22;18.02;;;9.18;;
8694;SDS011;65580;49.446;6.854;2024-01-30T12:19:27;19.70;;;8.80;;
8694;SDS011;65580;49.446;6.854;2024-01-30T12:23:30;19.90;;;9.65;;
8694;SDS011;65580;49.446;6.854;2024-01-30T12:27:42;16.95;;;8.32;;
8694;SDS011;65580;49.446;6.854;2024-01-30T12:31:47;15.73;;;8.30;;
8694;SDS011;65580;49.446;6.854;2024-01-30T12:35:51;18.13;;;7.93;;
8694;SDS011;65580;49.446;6.854;2024-01-30T12:40:05;13.98;;;7.57;;
8694;SDS011;65580;49.446;6.854;2024-01-30T12:48:28;15.57;;;8.20;;
8694;SDS011;65580;49.446;6.854;2024-01-30T12:56:34;17.27;;;8.15;;
8694;SDS011;65580;49.446;6.854;2024-01-30T13:00:51;15.50;;;7.03;;
8694;SDS011;65580;49.446;6.854;2024-01-30T13:09:11;14.52;;;7.90;;
8694;SDS011;65580;49.446;6.854;2024-01-30T13:17:48;18.10;;;8.35;;
8694;SDS011;65580;49.446;6.854;2024-01-30T13:21:52;15.07;;;8.05;;
8694;SDS011;65580;49.446;6.854;2024-01-30T13:26:05;18.75;;;8.30;;
8694;SDS011;65580;49.446;6.854;2024-01-30T13:30:08;18.27;;;9.02;;
8694;SDS011;65580;49.446;6.854;2024-01-30T13:34:14;21.80;;;9.40;;
8694;SDS011;65580;49.446;6.854;2024-01-30T13:38:17;20.40;;;10.10;;
8694;SDS011;65580;49.446;6.854;2024-01-30T13:42:21;18.70;;;10.68;;
8694;SDS011;65580;49.446;6.854;2024-01-30T13:46:24;18.90;;;9.48;;
8694;SDS011;65580;49.446;6.854;2024-01-30T13:50:37;18.75;;;9.57;;
8694;SDS011;65580;49.446;6.854;2024-01-30T13:54:55;20.05;;;10.20;;
8694;SDS011;65580;49.446;6.854;2024-01-30T13:58:58;20.02;;;9.45;;
8694;SDS011;65580;49.446;6.854;2024-01-30T14:03:03;19.00;;;10.18;;
8694;SDS011;65580;49.446;6.854;2024-01-30T14:11:28;19.17;;;9.07;;
8694;SDS011;65580;49.446;6.854;2024-01-30T14:15:32;14.65;;;8.80;;
8694;SDS011;65580;49.446;6.854;2024-01-30T14:19:35;20.33;;;9.43;;
8694;SDS011;65580;49.446;6.854;2024-01-30T14:23:52;18.08;;;9.35;;
8694;SDS011;65580;49.446;6.854;2024-01-30T14:27:55;19.75;;;9.25;;
8694;SDS011;65580;49.446;6.854;2024-01-30T14:31:58;19.90;;;9.07;;
8694;SDS011;65580;49.446;6.854;2024-01-30T14:36:00;21.20;;;9.77;;
8694;SDS011;65580;49.446;6.854;2024-01-30T14:40:06;19.55;;;9.52;;
8694;SDS011;65580;49.446;6.854;2024-01-30T14:44:09;26.60;;;9.18;;
8694;SDS011;65580;49.446;6.854;2024-01-30T14:48:12;18.35;;;8.80;;
8694;SDS011;65580;49.446;6.854;2024-01-30T14:52:16;18.13;;;9.05;;
8694;SDS011;65580;49.446;6.854;2024-01-30T14:56:20;20.55;;;8.75;;
8694;SDS011;65580;49.446;6.854;2024-01-30T15:00:29;20.65;;;8.68;;
8694;SDS011;65580;49.446;6.854;2024-01-30T15:04:33;18.02;;;8.23;;
8694;SDS011;65580;49.446;6.854;2024-01-30T15:08:48;17.13;;;8.98;;
8694;SDS011;65580;49.446;6.854;2024-01-30T15:13:12;19.33;;;8.00;;
8694;SDS011;65580;49.446;6.854;2024-01-30T15:17:18;18.48;;;8.85;;
8694;SDS011;65580;49.446;6.854;2024-01-30T15:21:24;16.45;;;7.90;;
8694;SDS011;65580;49.446;6.854;2024-01-30T15:25:29;18.10;;;9.13;;
8694;SDS011;65580;49.446;6.854;2024-01-30T15:29:34;16.65;;;8.43;;
8694;SDS011;65580;49.446;6.854;2024-01-30T15:33:38;17.42;;;8.73;;
8694;SDS011;65580;49.446;6.854;2024-01-30T15:37:40;23.55;;;9.27;;
8694;SDS011;65580;49.446;6.854;2024-01-30T15:41:43;15.88;;;7.78;;
8694;SDS011;65580;49.446;6.854;2024-01-30T15:45:49;16.40;;;7.35;;
8694;SDS011;65580;49.446;6.854;2024-01-30T15:49:52;12.13;;;6.28;;
8694;SDS011;65580;49.446;6.854;2024-01-30T15:58:08;11.13;;;5.47;;
8694;SDS011;65580;49.446;6.854;2024-01-30T16:02:15;11.40;;;6.53;;
8694;SDS011;65580;49.446;6.854;2024-01-30T16:06:38;12.07;;;6.57;;
8694;SDS011;65580;49.446;6.854;2024-01-30T16:10:41;20.45;;;8.38;;
8694;SDS011;65580;49.446;6.854;2024-01-30T16:14:45;23.92;;;12.05;;
8694;SDS011;65580;49.446;6.854;2024-01-30T16:18:50;18.75;;;7.88;;
8694;SDS011;65580;49.446;6.854;2024-01-30T16:22:53;33.67;;;13.77;;
8694;SDS011;65580;49.446;6.854;2024-01-30T16:26:57;23.45;;;10.55;;
8694;SDS011;65580;49.446;6.854;2024-01-30T16:31:02;28.05;;;10.93;;
8694;SDS011;65580;49.446;6.854;2024-01-30T16:35:07;13.05;;;6.68;;
8694;SDS011;65580;49.446;6.854;2024-01-30T16:39:23;15.15;;;7.18;;
8694;SDS011;65580;49.446;6.854;2024-01-30T16:43:26;9.80;;;5.65;;
8694;SDS011;65580;49.446;6.854;2024-01-30T16:47:30;11.23;;;5.50;;
8694;SDS011;65580;49.446;6.854;2024-01-30T16:56:06;9.48;;;5.57;;
8694;SDS011;65580;49.446;6.854;2024-01-30T17:00:11;11.65;;;6.13;;
8694;SDS011;65580;49.446;6.854;2024-01-30T17:04:25;12.13;;;6.25;;
8694;SDS011;65580;49.446;6.854;2024-01-30T17:08:29;13.10;;;7.05;;
8694;SDS011;65580;49.446;6.854;2024-01-30T17:12:37;14.48;;;7.40;;
8694;SDS011;65580;49.446;6.854;2024-01-30T17:16:45;16.75;;;6.90;;
8694;SDS011;65580;49.446;6.854;2024-01-30T17:20:57;15.10;;;7.20;;
8694;SDS011;65580;49.446;6.854;2024-01-30T17:25:12;13.48;;;6.13;;
8694;SDS011;65580;49.446;6.854;2024-01-30T17:29:17;12.68;;;6.45;;
8694;SDS011;65580;49.446;6.854;2024-01-30T17:33:22;12.40;;;6.10;;
8694;SDS011;65580;49.446;6.854;2024-01-30T17:37:34;11.82;;;6.38;;
8694;SDS011;65580;49.446;6.854;2024-01-30T17:41:41;12.20;;;6.05;;
8694;SDS011;65580;49.446;6.854;2024-01-30T17:50:10;10.90;;;5.85;;
8694;SDS011;65580;49.446;6.854;2024-01-30T17:54:13;11.18;;;5.97;;
8694;SDS011;65580;49.446;6.854;2024-01-30T17:58:18;12.57;;;6.03;;
8694;SDS011;65580;49.446;6.854;2024-01-30T18:02:22;10.95;;;5.85;;
8694;SDS011;65580;49.446;6.854;2024-01-30T18:06:26;12.95;;;6.75;;
8694;SDS011;65580;49.446;6.854;2024-01-30T18:10:31;11.95;;;6.20;;
8694;SDS011;65580;49.446;6.854;2024-01-30T18:14:35;14.50;;;6.18;;
8694;SDS011;65580;49.446;6.854;2024-01-30T18:18:50;12.20;;;6.03;;
8694;SDS011;65580;49.446;6.854;2024-01-30T18:22:53;9.65;;;5.78;;
8694;SDS011;65580;49.446;6.854;2024-01-30T18:26:58;17.13;;;7.25;;
8694;SDS011;65580;49.446;6.854;2024-01-30T18:31:03;13.63;;;6.90;;
8694;SDS011;65580;49.446;6.854;2024-01-30T18:35:06;16.98;;;7.72;;
8694;SDS011;65580;49.446;6.854;2024-01-30T18:43:13;16.17;;;6.75;;
8694;SDS011;65580;49.446;6.854;2024-01-30T18:47:18;12.27;;;6.97;;
8694;SDS011;65580;49.446;6.854;2024-01-30T18:51:21;15.25;;;7.18;;
8694;SDS011;65580;49.446;6.854;2024-01-30T18:55:28;14.15;;;6.78;;
8694;SDS011;65580;49.446;6.854;2024-01-30T18:59:31;16.98;;;7.50;;
8694;SDS011;65580;49.446;6.854;2024-01-30T19:03:35;20.08;;;7.10;;
8694;SDS011;65580;49.446;6.854;2024-01-30T19:07:38;18.17;;;7.22;;
8694;SDS011;65580;49.446;6.854;2024-01-30T19:11:41;13.93;;;6.32;;
8694;SDS011;65580;49.446;6.854;2024-01-30T19:19:49;12.35;;;6.38;;
8694;SDS011;65580;49.446;6.854;2024-01-30T19:24:00;10.18;;;6.05;;
8694;SDS011;65580;49.446;6.854;2024-01-30T19:28:03;12.05;;;6.20;;
8694;SDS011;65580;49.446;6.854;2024-01-30T19:32:06;15.55;;;7.13;;
8694;SDS011;65580;49.446;6.854;2024-01-30T19:36:10;13.25;;;6.35;;
8694;SDS011;65580;49.446;6.854;2024-01-30T19:40:13;11.43;;;6.07;;
8694;SDS011;65580;49.446;6.854;2024-01-30T19:44:16;12.23;;;6.47;;
8694;SDS011;65580;49.446;6.854;2024-01-30T19:48:27;15.00;;;7.40;;
8694;SDS011;65580;49.446;6.854;2024-01-30T19:52:31;12.32;;;6.00;;
8694;SDS011;65580;49.446;6.854;2024-01-30T19:56:35;13.30;;;6.78;;
8694;SDS011;65580;49.446;6.854;2024-01-30T20:00:52;18.77;;;7.60;;
8694;SDS011;65580;49.446;6.854;2024-01-30T20:09:20;16.73;;;7.93;;
8694;SDS011;65580;49.446;6.854;2024-01-30T20:13:24;12.45;;;6.13;;
8694;SDS011;65580;49.446;6.854;2024-01-30T20:17:33;12.82;;;6.30;;
8694;SDS011;65580;49.446;6.854;2024-01-30T20:21:36;12.60;;;6.40;;
8694;SDS011;65580;49.446;6.854;2024-01-30T20:25:41;13.13;;;7.38;;
8694;SDS011;65580;49.446;6.854;2024-01-30T20:29:44;15.52;;;7.32;;
8694;SDS011;65580;49.446;6.854;2024-01-30T20:33:47;12.30;;;6.80;;
8694;SDS011;65580;49.446;6.854;2024-01-30T20:38:21;15.38;;;6.22;;
8694;SDS011;65580;49.446;6.854;2024-01-30T20:42:28;13.18;;;6.72;;
8694;SDS011;65580;49.446;6.854;2024-01-30T20:46:30;13.38;;;6.63;;
8694;SDS011;65580;49.446;6.854;2024-01-30T20:50:39;19.15;;;8.38;;
8694;SDS011;65580;49.446;6.854;2024-01-30T20:54:42;13.95;;;7.45;;
8694;SDS011;65580;49.446;6.854;2024-01-30T20:58:46;13.70;;;7.20;;
8694;SDS011;65580;49.446;6.854;2024-01-30T21:02:49;14.27;;;6.90;;
8694;SDS011;65580;49.446;6.854;2024-01-30T21:06:52;14.30;;;7.45;;
8694;SDS011;65580;49.446;6.854;2024-01-30T21:11:10;15.80;;;7.10;;
8694;SDS011;65580;49.446;6.854;2024-01-30T21:15:20;15.25;;;7.35;;
8694;SDS011;65580;49.446;6.854;2024-01-30T21:19:23;19.05;;;8.40;;
8694;SDS011;65580;49.446;6.854;2024-01-30T21:23:27;24.83;;;10.52;;
8694;SDS011;65580;49.446;6.854;2024-01-30T21:27:31;23.33;;;9.13;;
8694;SDS011;65580;49.446;6.854;2024-01-30T21:31:35;13.85;;;7.43;;
8694;SDS011;65580;49.446;6.854;2024-01-30T21:35:59;19.75;;;8.82;;
8694;SDS011;65580;49.446;6.854;2024-01-30T21:40:02;30.15;;;10.60;;
8694;SDS011;65580;49.446;6.854;2024-01-30T21:44:17;17.25;;;9.25;;
8694;SDS011;65580;49.446;6.854;2024-01-30T21:48:22;18.50;;;8.55;;
8694;SDS011;65580;49.446;6.854;2024-01-30T21:52:24;16.90;;;8.63;;
8694;SDS011;65580;49.446;6.854;2024-01-30T21:56:27;16.00;;;7.75;;
8694;SDS011;65580;49.446;6.854;2024-01-30T22:09:15;18.40;;;8.68;;
8694;SDS011;65580;49.446;6.854;2024-01-30T22:13:27;22.75;;;11.10;;
8694;SDS011;65580;49.446;6.854;2024-01-30T22:17:29;23.00;;;11.32;;
8694;SDS011;65580;49.446;6.854;2024-01-30T22:21:34;30.08;;;12.50;;
8694;SDS011;65580;49.446;6.854;2024-01-30T22:25:37;25.55;;;11.15;;
8694;SDS011;65580;49.446;6.854;2024-01-30T22:34:10;23.63;;;9.15;;
8694;SDS011;65580;49.446;6.854;2024-01-30T22:38:14;16.50;;;8.60;;
8694;SDS011;65580;49.446;6.854;2024-01-30T22:42:17;15.00;;;7.45;;
8694;SDS011;65580;49.446;6.854;2024-01-30T22:46:20;16.42;;;8.48;;
8694;SDS011;65580;49.446;6.854;2024-01-30T22:50:23;14.75;;;7.45;;
8694;SDS011;65580;49.446;6.854;2024-01-30T22:54:28;17.05;;;7.55;;
8694;SDS011;65580;49.446;6.854;2024-01-30T22:58:31;13.52;;;6.82;;
8694;SDS011;65580;49.446;6.854;2024-01-30T23:02:34;15.45;;;6.38;;
8694;SDS011;65580;49.446;6.854;2024-01-30T23:06:37;11.02;;;5.80;;
8694;SDS011;65580;49.446;6.854;2024-01-30T23:10:41;16.50;;;6.28;;
8694;SDS011;65580;49.446;6.854;2024-01-30T23:14:44;11.80;;;5.22;;
8694;SDS011;65580;49.446;6.854;2024-01-30T23:19:01;14.57;;;6.60;;
8694;SDS011;65580;49.446;6.854;2024-01-30T23:23:06;10.90;;;6.22;;
8694;SDS011;65580;49.446;6.854;2024-01-30T23:31:13;12.35;;;6.28;;
8694;SDS011;65580;49.446;6.854;2024-01-30T23:35:16;13.75;;;5.75;;
8694;SDS011;65580;49.446;6.854;2024-01-30T23:39:20;11.52;;;6.45;;
8694;SDS011;65580;49.446;6.854;2024-01-30T23:43:24;16.13;;;6.50;;
8694;SDS011;65580;49.446;6.854;2024-01-30T23:47:30;12.32;;;5.78;;
8694;SDS011;65580;49.446;6.854;2024-01-30T23:51:33;16.10;;;7.00;;
8694;SDS011;65580;49.446;6.854;2024-01-30T23:55:36;15.32;;;6.90;;
